Time;durP1;ratioP1;P1;durP2;ratioP2;P2;SDS_P1;SDS_P2;PMS_P1;PMS_P2;Temp;Humidity;BMP_temperature;BMP_pressure;BME280_temperature;BME280_humidity;BME280_pressure;Samples;Min_cycle;Max_cycle;Signal;HPM_P1;HPM_P2
2022/02/16 00:00:00;;;;;;;;;;;;;;;2.09;80.22;100348.03;5072180;28;19963;-58
2022/02/16 00:02:25;;;;;;;;;;;;;;;2.10;80.30;100351.50;5071974;28;19923;-58
2022/02/16 00:04:51;;;;;;;;;;;;;;;2.10;80.68;100352.34;5071525;28;20541;-60
2022/02/16 00:07:16;;;;;;;;;;;;;;;2.10;80.47;100348.88;5072271;28;19916;-60
2022/02/16 00:09:41;;;;;;;;;;;;;;;2.14;80.24;100343.25;5072016;28;19916;-60
2022/02/16 00:12:07;;;;;;;;;;;;;;;2.14;80.42;100343.25;5072087;28;19923;-58
2022/02/16 00:14:32;;;;;;;;;;;;;;;2.11;80.37;100338.25;5071910;28;19917;-58
2022/02/16 00:16:58;;;;;;;;;;;;;;;2.14;80.34;100343.25;5071637;28;19916;-57
2022/02/16 00:19:23;;;;;;;;;;;;;;;2.14;80.47;100338.00;5071853;28;19916;-59
2022/02/16 00:21:49;;;;;;;;;;;;;;;2.15;80.40;100329.16;5071927;28;20336;-61
2022/02/16 00:24:14;;;;;;;;;;;;;;;2.16;80.49;100336.09;5071789;28;19926;-60
2022/02/16 00:26:40;;;;;;;;;;;;;;;2.20;80.33;100341.09;5036911;28;20338;-57
2022/02/16 00:29:06;;;;;;;;;;;;;;;2.20;80.45;100346.34;5071717;28;19916;-59
2022/02/16 00:31:31;;;;;;;;;;;;;;;2.21;80.80;100348.03;5071389;28;19920;-58
2022/02/16 00:33:56;;;;;;;;;;;;;;;2.25;80.45;100345.03;5053531;28;19916;-59
2022/02/16 00:36:22;;;;;;;;;;;;;;;2.26;80.39;100351.13;5071752;28;19970;-59
2022/02/16 00:38:47;;;;;;;;;;;;;;;2.28;80.40;100338.69;5071696;28;19916;-59
2022/02/16 00:41:13;;;;;;;;;;;;;;;2.28;80.33;100339.53;5071850;28;20318;-60
2022/02/16 00:43:40;;;;;;;;;;;;;;;2.25;80.74;100334.53;5039379;28;19928;-58
2022/02/16 00:46:06;;;;;;;;;;;;;;;2.24;80.62;100332.84;5051399;28;19920;-56
2022/02/16 00:48:32;;;;;;;;;;;;;;;2.26;80.64;100338.00;5051482;28;20423;-57
2022/02/16 00:50:58;;;;;;;;;;;;;;;2.28;80.45;100325.56;5051485;28;19956;-58
2022/02/16 00:53:24;;;;;;;;;;;;;;;2.31;80.33;100343.72;5051635;28;20062;-55
2022/02/16 00:55:49;;;;;;;;;;;;;;;2.33;80.15;100337.41;5052059;28;19948;-58
2022/02/16 00:58:15;;;;;;;;;;;;;;;2.34;80.27;100338.25;5051822;28;20419;-57
2022/02/16 01:00:40;;;;;;;;;;;;;;;2.34;80.23;100338.25;5051679;28;20094;-60
2022/02/16 01:03:05;;;;;;;;;;;;;;;2.30;80.29;100329.75;5051610;28;19920;-58
2022/02/16 01:05:31;;;;;;;;;;;;;;;2.33;79.82;100331.31;5051483;28;19931;-58
2022/02/16 01:07:56;;;;;;;;;;;;;;;2.35;80.25;100318.91;5051374;28;19983;-59
2022/02/16 01:10:21;;;;;;;;;;;;;;;2.36;79.98;100321.41;5051448;28;19924;-58
2022/02/16 01:12:47;;;;;;;;;;;;;;;2.38;80.17;100318.66;5051445;28;19924;-60
2022/02/16 01:15:12;;;;;;;;;;;;;;;2.37;80.20;100311.72;5051234;28;19917;-59
2022/02/16 01:17:38;;;;;;;;;;;;;;;2.32;80.40;100325.22;5054987;28;20468;-59
2022/02/16 01:20:05;;;;;;;;;;;;;;;2.33;80.19;100315.56;5055940;28;19916;-58
2022/02/16 01:22:30;;;;;;;;;;;;;;;2.34;80.12;100317.22;5056443;28;20003;-57
2022/02/16 01:24:56;;;;;;;;;;;;;;;2.35;80.00;100313.63;5034393;28;19955;-59
2022/02/16 01:27:21;;;;;;;;;;;;;;;2.34;79.95;100317.22;5051496;28;19920;-58
2022/02/16 01:29:46;;;;;;;;;;;;;;;2.34;80.16;100318.06;5054990;28;19916;-60
2022/02/16 01:32:12;;;;;;;;;;;;;;;2.35;80.64;100313.63;5055210;28;20380;-57
2022/02/16 01:34:37;;;;;;;;;;;;;;;2.38;80.15;100313.41;5055173;28;19952;-58
2022/02/16 01:37:03;;;;;;;;;;;;;;;2.37;79.87;100314.34;5055014;28;19955;-58
2022/02/16 01:39:28;;;;;;;;;;;;;;;2.35;80.47;100303.97;5034964;28;20019;-57
2022/02/16 01:41:55;;;;;;;;;;;;;;;2.36;80.43;100302.16;5054862;28;19970;-57
2022/02/16 01:44:24;;;;;;;;;;;;;;;2.36;80.45;100310.06;5073770;28;20034;-59
2022/02/16 01:46:49;;;;;;;;;;;;;;;2.36;81.05;100299.53;5074625;28;19962;-58
2022/02/16 01:49:15;;;;;;;;;;;;;;;2.27;81.66;100302.88;5057069;28;20442;-58
2022/02/16 01:51:40;;;;;;;;;;;;;;;2.26;81.84;100298.56;5074689;28;19943;-59
2022/02/16 01:54:06;;;;;;;;;;;;;;;2.25;81.76;100297.75;5056186;28;20379;-60
2022/02/16 01:56:32;;;;;;;;;;;;;;;2.26;81.53;100283.66;5074336;28;19916;-58
2022/02/16 01:58:58;;;;;;;;;;;;;;;2.25;82.05;100294.28;5074077;28;19920;-60
2022/02/16 02:01:26;;;;;;;;;;;;;;;2.24;81.55;100288.19;5074210;28;19924;-59
2022/02/16 02:03:55;;;;;;;;;;;;;;;2.23;81.68;100285.69;5055950;28;20024;-58
2022/02/16 02:06:20;;;;;;;;;;;;;;;2.23;81.60;100283.91;5073913;28;19916;-57
2022/02/16 02:08:46;;;;;;;;;;;;;;;2.25;81.38;100284.59;5073919;28;19962;-58
2022/02/16 02:11:12;;;;;;;;;;;;;;;2.25;81.74;100286.41;5073718;28;20354;-59
2022/02/16 02:13:38;;;;;;;;;;;;;;;2.25;81.91;100283.78;5039318;28;19923;-59
2022/02/16 02:16:04;;;;;;;;;;;;;;;2.27;81.42;100271.34;5073990;28;20299;-59
2022/02/16 02:18:29;;;;;;;;;;;;;;;2.28;81.42;100270.38;5073758;28;20449;-59
2022/02/16 02:20:54;;;;;;;;;;;;;;;2.32;81.26;100271.84;5074049;28;19970;-56
2022/02/16 02:23:20;;;;;;;;;;;;;;;2.35;80.99;100282.09;5073999;28;20455;-57
2022/02/16 02:25:46;;;;;;;;;;;;;;;2.37;81.35;100277.56;5073832;28;20315;-61
2022/02/16 02:28:12;;;;;;;;;;;;;;;2.40;80.96;100279.94;5072952;28;19916;-57
2022/02/16 02:30:37;;;;;;;;;;;;;;;2.38;80.92;100271.34;5073943;28;19916;-58
2022/02/16 02:33:03;;;;;;;;;;;;;;;2.39;80.85;100279.09;5055585;28;20332;-58
2022/02/16 02:35:28;;;;;;;;;;;;;;;2.39;80.65;100292.25;5055981;28;19916;-59
2022/02/16 02:37:53;;;;;;;;;;;;;;;2.40;80.71;100285.19;5073661;28;19916;-60
2022/02/16 02:40:19;;;;;;;;;;;;;;;2.39;81.00;100288.78;5074010;28;19916;-58
2022/02/16 02:42:44;;;;;;;;;;;;;;;2.42;80.36;100293.78;5049516;28;19966;-58
2022/02/16 02:45:10;;;;;;;;;;;;;;;2.42;80.53;100283.28;5053621;28;19974;-56
2022/02/16 02:47:35;;;;;;;;;;;;;;;2.40;80.57;100285.19;5053798;28;20016;-57
2022/02/16 02:50:01;;;;;;;;;;;;;;;2.40;80.63;100295.72;5053686;28;19921;-59
2022/02/16 02:52:28;;;;;;;;;;;;;;;2.39;80.90;100292.25;5053244;28;19931;-59
2022/02/16 02:54:53;;;;;;;;;;;;;;;2.39;80.45;100281.72;5032308;28;19920;-57
2022/02/16 02:57:19;;;;;;;;;;;;;;;2.38;80.44;100287.94;5049574;28;20272;-57
2022/02/16 02:59:44;;;;;;;;;;;;;;;2.45;80.34;100290.91;5053285;28;20295;-59
2022/02/16 03:02:09;;;;;;;;;;;;;;;2.45;80.73;100293.53;5053291;28;19982;-58
2022/02/16 03:04:35;;;;;;;;;;;;;;;2.46;80.78;100284.69;5053220;28;20415;-60
2022/02/16 03:07:00;;;;;;;;;;;;;;;2.46;80.41;100279.44;5053064;28;20391;-60
2022/02/16 03:09:26;;;;;;;;;;;;;;;2.43;80.37;100285.78;5032296;28;20397;-56
2022/02/16 03:11:51;;;;;;;;;;;;;;;2.46;80.22;100284.69;5052259;28;19928;-58
2022/02/16 03:14:17;;;;;;;;;;;;;;;2.46;80.29;100280.28;5052668;28;19916;-55
2022/02/16 03:16:42;;;;;;;;;;;;;;;2.48;80.11;100288.03;5052704;28;19969;-60
2022/02/16 03:19:07;;;;;;;;;;;;;;;2.52;80.31;100286.00;5052905;28;19916;-59
2022/02/16 03:21:33;;;;;;;;;;;;;;;2.52;80.52;100289.47;5052973;28;19917;-54
2022/02/16 03:23:58;;;;;;;;;;;;;;;2.51;81.00;100290.44;5031574;28;19917;-62
2022/02/16 03:26:24;;;;;;;;;;;;;;;2.50;80.59;100296.63;5049446;28;19916;-62
2022/02/16 03:28:49;;;;;;;;;;;;;;;2.47;80.34;100291.63;5052727;28;19917;-57
2022/02/16 03:31:14;;;;;;;;;;;;;;;2.44;80.51;100300.59;5052875;28;19923;-59
2022/02/16 03:33:40;;;;;;;;;;;;;;;2.46;80.66;100292.59;5052209;28;20415;-59
2022/02/16 03:36:06;;;;;;;;;;;;;;;2.46;80.75;100300.47;5052563;28;19971;-57
2022/02/16 03:38:31;;;;;;;;;;;;;;;2.47;80.51;100297.72;5052329;28;19929;-58
2022/02/16 03:40:56;;;;;;;;;;;;;;;2.45;80.42;100293.53;5052293;28;19924;-60
2022/02/16 03:43:24;;;;;;;;;;;;;;;2.45;80.07;100293.53;5041959;28;19920;-60
2022/02/16 03:45:49;;;;;;;;;;;;;;;2.51;80.28;100289.59;5054211;28;20432;-59
2022/02/16 03:48:14;;;;;;;;;;;;;;;2.52;80.15;100294.72;5072206;28;19916;-58
2022/02/16 03:50:40;;;;;;;;;;;;;;;2.54;80.03;100289.34;5072265;28;19920;-61
2022/02/16 03:53:05;;;;;;;;;;;;;;;2.53;79.67;100280.63;5072048;28;19942;-59
2022/02/16 03:55:30;;;;;;;;;;;;;;;2.50;79.63;100283.50;5072357;28;19924;-59
2022/02/16 03:57:56;;;;;;;;;;;;;;;2.43;79.83;100290.22;5072139;28;20291;-59
2022/02/16 04:00:21;;;;;;;;;;;;;;;2.31;80.68;100296.41;5071965;28;19970;-60
2022/02/16 04:02:47;;;;;;;;;;;;;;;2.28;80.32;100297.50;5072379;28;19916;-60
2022/02/16 04:05:12;;;;;;;;;;;;;;;2.27;80.63;100297.63;5054110;28;19916;-58
2022/02/16 04:07:37;;;;;;;;;;;;;;;2.27;80.32;100295.00;5071958;28;19917;-59
2022/02/16 04:10:04;;;;;;;;;;;;;;;2.27;80.36;100301.09;5072240;28;19917;-58
2022/02/16 04:12:29;;;;;;;;;;;;;;;2.27;79.97;100308.97;5072735;28;19917;-59
2022/02/16 04:14:54;;;;;;;;;;;;;;;2.32;80.06;100309.47;5053755;28;19939;-57
2022/02/16 04:17:20;;;;;;;;;;;;;;;2.34;79.74;100302.28;5071529;28;19963;-62
2022/02/16 04:19:45;;;;;;;;;;;;;;;2.21;79.94;100279.72;5053547;28;19916;-63
2022/02/16 04:22:14;;;;;;;;;;;;;;;2.35;80.03;100311.00;5071997;28;19916;-59
2022/02/16 04:24:40;;;;;;;;;;;;;;;2.39;79.33;100309.81;5071440;28;19970;-61
2022/02/16 04:27:05;;;;;;;;;;;;;;;2.40;79.73;100307.06;5071304;28;19920;-62
2022/02/16 04:29:30;;;;;;;;;;;;;;;2.43;79.12;100311.22;5071698;28;19916;-65
2022/02/16 04:31:56;;;;;;;;;;;;;;;2.36;79.49;100307.44;5071688;28;20319;-60
2022/02/16 04:34:24;;;;;;;;;;;;;;;2.34;79.22;100311.97;5071510;28;20325;-57
2022/02/16 04:36:49;;;;;;;;;;;;;;;2.26;79.15;100315.19;5072207;28;19955;-60
2022/02/16 04:39:16;;;;;;;;;;;;;;;2.28;79.00;100301.91;5071583;28;20383;-60
2022/02/16 04:41:50;;;;;;;;;;;;;;;2.30;78.88;100305.25;5071436;28;19920;-63
2022/02/16 04:44:18;;;;;;;;;;;;;;;2.33;79.01;100305.03;5054506;28;19925;-52
2022/02/16 04:46:44;;;;;;;;;;;;;;;2.35;78.85;100303.13;5034777;28;19974;-55
2022/02/16 04:49:09;;;;;;;;;;;;;;;2.32;78.80;100308.63;5051887;28;19928;-57
2022/02/16 04:51:35;;;;;;;;;;;;;;;2.33;78.87;100307.66;5052967;28;19917;-56
2022/02/16 04:54:00;;;;;;;;;;;;;;;2.34;78.29;100302.28;5054635;28;19923;-56
2022/02/16 04:56:25;;;;;;;;;;;;;;;2.33;78.67;100291.91;5055952;28;20422;-53
2022/02/16 04:58:51;;;;;;;;;;;;;;;2.37;78.74;100303.84;5055423;28;19921;-59
2022/02/16 05:01:20;;;;;;;;;;;;;;;2.35;78.23;100297.88;5056624;28;19924;-55
2022/02/16 05:03:46;;;;;;;;;;;;;;;2.35;78.50;100308.38;5056173;28;19917;-58
2022/02/16 05:06:11;;;;;;;;;;;;;;;2.35;78.18;100297.88;5056270;28;19920;-59
2022/02/16 05:08:36;;;;;;;;;;;;;;;2.34;78.34;100299.66;5055211;28;20296;-56
2022/02/16 05:11:02;;;;;;;;;;;;;;;2.35;78.02;100303.13;5055240;28;19917;-52
2022/02/16 05:13:28;;;;;;;;;;;;;;;2.34;78.04;100296.22;5035282;28;19924;-56
2022/02/16 05:15:53;;;;;;;;;;;;;;;2.36;78.01;100303.00;5055503;28;19924;-52
2022/02/16 05:18:18;;;;;;;;;;;;;;;2.36;78.12;100310.06;5056064;28;20360;-55
2022/02/16 05:20:44;;;;;;;;;;;;;;;2.35;78.18;100303.97;5055335;28;19917;-57
2022/02/16 05:23:09;;;;;;;;;;;;;;;2.34;78.11;100312.81;5055071;28;19923;-61
2022/02/16 05:25:34;;;;;;;;;;;;;;;2.32;78.42;100311.25;5055981;28;19923;-60
2022/02/16 05:28:00;;;;;;;;;;;;;;;2.33;77.87;100311.13;5055865;28;20407;-57
2022/02/16 05:30:25;;;;;;;;;;;;;;;2.36;77.68;100320.56;5055246;28;19957;-56
2022/02/16 05:32:50;;;;;;;;;;;;;;;2.36;77.37;100317.94;5054922;28;20379;-57
2022/02/16 05:35:16;;;;;;;;;;;;;;;2.33;77.91;100319.03;5054935;28;19917;-58
2022/02/16 05:37:42;;;;;;;;;;;;;;;2.32;77.71;100314.72;5054831;28;19963;-55
2022/02/16 05:40:07;;;;;;;;;;;;;;;2.36;77.61;100318.78;5055152;28;20003;-60
2022/02/16 05:42:36;;;;;;;;;;;;;;;2.35;77.54;100313.63;5059221;28;20383;-61
2022/02/16 05:45:05;;;;;;;;;;;;;;;2.32;77.45;100324.41;5074943;28;19940;-57
2022/02/16 05:47:30;;;;;;;;;;;;;;;2.34;77.18;100317.22;5074668;28;19927;-58
2022/02/16 05:49:56;;;;;;;;;;;;;;;2.35;77.36;100322.34;5075136;28;20291;-58
2022/02/16 05:52:21;;;;;;;;;;;;;;;2.33;77.27;100316.38;5074820;28;19920;-55
2022/02/16 05:54:46;;;;;;;;;;;;;;;2.34;77.42;100314.59;5074992;28;20280;-53
2022/02/16 05:57:12;;;;;;;;;;;;;;;2.30;77.38;100303.47;5074606;28;20449;-58
2022/02/16 05:59:39;;;;;;;;;;;;;;;2.30;77.07;100300.84;5074490;28;20026;-57
2022/02/16 06:02:05;;;;;;;;;;;;;;;2.36;76.73;100312.69;5072153;28;20007;-58
2022/02/16 06:04:31;;;;;;;;;;;;;;;2.36;76.66;100315.31;5072357;28;20015;-58
2022/02/16 06:06:56;;;;;;;;;;;;;;;2.40;76.44;100319.38;5074170;28;20310;-60
2022/02/16 06:09:22;;;;;;;;;;;;;;;2.39;76.34;100313.28;5074614;28;20299;-59
2022/02/16 06:11:47;;;;;;;;;;;;;;;2.43;76.43;100324.38;5074444;28;19970;-60
2022/02/16 06:14:12;;;;;;;;;;;;;;;2.41;76.47;100324.50;5074812;28;19969;-56
2022/02/16 06:16:38;;;;;;;;;;;;;;;2.43;76.28;100327.00;5074530;28;19917;-61
2022/02/16 06:19:03;;;;;;;;;;;;;;;2.43;75.65;100327.00;5074408;28;20260;-58
2022/02/16 06:21:28;;;;;;;;;;;;;;;2.43;76.52;100343.59;5074250;28;19916;-55
2022/02/16 06:23:54;;;;;;;;;;;;;;;2.42;76.23;100341.09;5056532;28;19916;-58
2022/02/16 06:26:19;;;;;;;;;;;;;;;2.45;75.89;100340.84;5074308;28;19917;-56
2022/02/16 06:28:44;;;;;;;;;;;;;;;2.44;75.87;100333.94;5074147;28;19916;-56
2022/02/16 06:31:10;;;;;;;;;;;;;;;2.45;75.86;100335.59;5074574;28;19916;-56
2022/02/16 06:33:35;;;;;;;;;;;;;;;2.49;75.74;100342.28;5075608;28;19939;-58
2022/02/16 06:36:01;;;;;;;;;;;;;;;2.46;76.07;100342.53;5073659;28;19962;-55
2022/02/16 06:38:26;;;;;;;;;;;;;;;2.46;76.17;100350.41;5080229;28;19916;-56
2022/02/16 06:40:51;;;;;;;;;;;;;;;2.47;75.98;100350.28;5096459;28;19924;-62
2022/02/16 06:43:17;;;;;;;;;;;;;;;2.49;75.71;100353.63;5083212;28;19920;-62
2022/02/16 06:45:43;;;;;;;;;;;;;;;2.51;75.45;100365.81;5093095;28;19973;-62
2022/02/16 06:48:08;;;;;;;;;;;;;;;2.47;75.30;100360.81;5093561;28;20014;-63
2022/02/16 06:50:33;;;;;;;;;;;;;;;2.45;75.28;100367.13;5075554;28;19923;-63
2022/02/16 06:52:59;;;;;;;;;;;;;;;2.48;74.69;100357.22;5093599;28;19916;-60
2022/02/16 06:55:24;;;;;;;;;;;;;;;2.55;74.94;100362.81;5093626;28;20416;-57
2022/02/16 06:57:50;;;;;;;;;;;;;;;2.54;74.73;100355.06;5093536;28;20341;-63
2022/02/16 07:00:15;;;;;;;;;;;;;;;2.55;75.28;100359.34;5093623;28;20412;-62
2022/02/16 07:02:42;;;;;;;;;;;;;;;2.54;74.77;100361.16;5093376;28;19973;-64
2022/02/16 07:05:07;;;;;;;;;;;;;;;2.56;75.00;100353.16;5093234;28;19923;-68
2022/02/16 07:07:33;;;;;;;;;;;;;;;2.60;74.96;100362.44;5074623;28;19916;-64
2022/02/16 07:09:58;;;;;;;;;;;;;;;2.60;75.17;100344.91;5091844;28;19922;-63
2022/02/16 07:12:24;;;;;;;;;;;;;;;2.58;74.57;100352.06;5087863;28;19924;-61
2022/02/16 07:14:53;;;;;;;;;;;;;;;2.61;74.38;100351.84;5076462;28;19916;-62
2022/02/16 07:17:19;;;;;;;;;;;;;;;2.60;73.79;100350.19;5072971;28;19923;-61
2022/02/16 07:19:44;;;;;;;;;;;;;;;2.68;74.29;100358.28;5072537;28;19987;-56
2022/02/16 07:22:09;;;;;;;;;;;;;;;2.71;74.42;100352.78;5072740;28;19916;-62
2022/02/16 07:24:35;;;;;;;;;;;;;;;2.74;74.03;100357.78;5091825;28;19938;-58
2022/02/16 07:27:00;;;;;;;;;;;;;;;2.75;73.06;100356.00;5092801;28;20307;-57
2022/02/16 07:29:26;;;;;;;;;;;;;;;2.73;73.11;100356.13;5092380;28;19923;-57
2022/02/16 07:31:52;;;;;;;;;;;;;;;2.77;73.20;100354.91;5093050;28;19955;-60
2022/02/16 07:34:19;;;;;;;;;;;;;;;2.82;73.30;100361.59;5092842;28;19920;-63
2022/02/16 07:36:44;;;;;;;;;;;;;;;2.79;72.66;100355.63;5093157;28;19916;-64
2022/02/16 07:39:09;;;;;;;;;;;;;;;2.80;72.91;100345.94;5092620;28;20018;-64
2022/02/16 07:41:35;;;;;;;;;;;;;;;2.87;73.00;100341.00;5092735;28;19916;-65
2022/02/16 07:44:03;;;;;;;;;;;;;;;2.89;72.80;100349.63;5074640;28;19920;-62
2022/02/16 07:46:28;;;;;;;;;;;;;;;2.92;72.55;100344.13;5092580;28;20017;-67
2022/02/16 07:48:54;;;;;;;;;;;;;;;2.94;72.38;100352.72;5090584;28;20345;-63
2022/02/16 07:51:19;;;;;;;;;;;;;;;2.99;72.36;100350.56;5072491;28;19934;-65
2022/02/16 07:53:44;;;;;;;;;;;;;;;3.07;71.91;100353.41;5075904;28;19993;-64
2022/02/16 07:56:10;;;;;;;;;;;;;;;3.15;71.64;100352.78;5092735;28;19923;-64
2022/02/16 07:58:35;;;;;;;;;;;;;;;3.13;71.53;100341.53;5092496;28;19920;-56
2022/02/16 08:01:00;;;;;;;;;;;;;;;3.11;71.21;100349.56;5079252;28;19923;-63
2022/02/16 08:03:26;;;;;;;;;;;;;;;3.10;71.35;100348.72;5051642;28;19916;-61
2022/02/16 08:05:51;;;;;;;;;;;;;;;3.14;70.95;100353.72;5072232;28;19927;-63
2022/02/16 08:08:17;;;;;;;;;;;;;;;3.10;70.49;100348.72;5072087;28;19916;-61
2022/02/16 08:10:48;;;;;;;;;;;;;;;3.15;70.92;100360.66;5072162;28;19927;-61
2022/02/16 08:13:15;;;;;;;;;;;;;;;3.20;70.41;100353.25;5087923;28;19916;-62
2022/02/16 08:15:40;;;;;;;;;;;;;;;3.24;69.61;100365.19;5092077;28;19932;-58
2022/02/16 08:18:05;;;;;;;;;;;;;;;3.31;69.75;100351.41;5091767;28;19922;-66
2022/02/16 08:20:31;;;;;;;;;;;;;;;3.32;69.23;100350.44;5085980;28;19915;-65
2022/02/16 08:22:56;;;;;;;;;;;;;;;3.36;69.54;100364.19;5087459;28;19920;-64
2022/02/16 08:25:21;;;;;;;;;;;;;;;3.34;69.59;100355.56;5070773;28;19920;-65
2022/02/16 08:27:47;;;;;;;;;;;;;;;3.40;69.37;100350.63;5068662;28;20459;-65
2022/02/16 08:30:13;;;;;;;;;;;;;;;3.34;69.24;100345.88;5067802;28;19916;-64
2022/02/16 08:32:40;;;;;;;;;;;;;;;3.34;68.86;100364.31;5067958;28;20375;-65
2022/02/16 08:35:09;;;;;;;;;;;;;;;3.29;68.96;100355.97;5068150;28;19916;-64
2022/02/16 08:37:35;;;;;;;;;;;;;;;3.34;68.43;100361.66;5067929;28;19916;-65
2022/02/16 08:40:01;;;;;;;;;;;;;;;3.35;68.86;100358.09;5067782;28;20282;-68
2022/02/16 08:42:29;;;;;;;;;;;;;;;3.37;68.84;100356.16;5067400;28;20408;-63
2022/02/16 08:45:24;;;;;;;;;;;;;;;3.46;67.69;100358.97;5067845;28;19927;-63
2022/02/16 08:47:49;;;;;;;;;;;;;;;3.42;68.50;100353.97;5067856;28;19927;-67
2022/02/16 08:50:14;;;;;;;;;;;;;;;3.54;68.37;100356.56;5068785;28;20299;-67
2022/02/16 08:52:40;;;;;;;;;;;;;;;3.61;67.52;100358.56;5068234;28;20089;-65
2022/02/16 08:55:06;;;;;;;;;;;;;;;3.64;67.22;100355.66;5068667;28;20394;-70
2022/02/16 08:57:31;;;;;;;;;;;;;;;3.53;66.79;100347.84;5048481;28;19916;-72
2022/02/16 08:59:57;;;;;;;;;;;;;;;3.62;66.60;100354.13;5067773;28;20007;-71
2022/02/16 09:02:22;;;;;;;;;;;;;;;3.70;67.27;100341.16;5068131;28;19935;-69
2022/02/16 09:04:48;;;;;;;;;;;;;;;3.65;66.24;100345.97;5067918;28;19948;-70
2022/02/16 09:07:28;;;;;;;;;;;;;;;3.65;66.29;100345.97;5068474;28;19917;-67
2022/02/16 09:09:54;;;;;;;;;;;;;;;3.71;66.23;100340.19;5068559;28;19920;-74
2022/02/16 09:12:20;;;;;;;;;;;;;;;3.77;66.64;100344.97;5046902;28;19923;-70
2022/02/16 09:14:45;;;;;;;;;;;;;;;3.81;66.39;100354.28;5067195;28;19916;-70
2022/02/16 09:17:10;;;;;;;;;;;;;;;3.71;66.34;100354.19;5067949;28;19967;-74
2022/02/16 09:19:37;;;;;;;;;;;;;;;3.72;66.32;100349.75;5032497;28;19917;-74
2022/02/16 09:22:02;;;;;;;;;;;;;;;3.71;66.38;100348.91;5067909;28;20437;-70
2022/02/16 09:24:28;;;;;;;;;;;;;;;3.74;66.18;100348.66;5067602;28;19916;-71
2022/02/16 09:26:53;;;;;;;;;;;;;;;3.78;66.41;100346.63;5068707;28;19916;-71
2022/02/16 09:29:19;;;;;;;;;;;;;;;3.82;65.52;100353.31;5067761;28;20312;-67
2022/02/16 09:31:44;;;;;;;;;;;;;;;3.86;65.83;100348.59;5068458;28;19916;-70
2022/02/16 09:34:10;;;;;;;;;;;;;;;3.89;66.33;100343.91;5057184;28;19916;-70
2022/02/16 09:36:35;;;;;;;;;;;;;;;3.97;65.43;100338.81;5091144;28;19999;-70
2022/02/16 09:39:01;;;;;;;;;;;;;;;3.94;65.04;100344.34;5075883;28;19938;-67
2022/02/16 09:41:26;;;;;;;;;;;;;;;3.90;65.33;100348.22;5095177;28;19916;-70
2022/02/16 09:43:53;;;;;;;;;;;;;;;3.91;64.45;100352.50;5103872;28;20434;-71
2022/02/16 09:46:18;;;;;;;;;;;;;;;3.93;64.39;100347.13;5094190;28;19920;-70
2022/02/16 09:48:44;;;;;;;;;;;;;;;3.87;64.75;100343.22;5093908;28;20018;-67
2022/02/16 09:51:10;;;;;;;;;;;;;;;3.96;65.19;100341.59;5109881;28;19916;-63
2022/02/16 09:53:35;;;;;;;;;;;;;;;3.96;64.95;100337.16;5115214;28;19923;-65
2022/02/16 09:56:01;;;;;;;;;;;;;;;3.86;64.66;100341.53;5111442;28;19927;-66
2022/02/16 09:58:26;;;;;;;;;;;;;;;3.91;64.97;100349.03;5100327;28;19920;-74
2022/02/16 10:01:17;;;;;;;;;;;;;;;4.12;64.26;100341.13;5111181;28;19927;-70
2022/02/16 10:04:01;;;;;;;;;;;;;;;4.21;64.36;100335.88;5114431;28;19923;-69
2022/02/16 10:06:35;;;;;;;;;;;;;;;4.28;63.45;100336.19;5115743;28;19919;-77
2022/02/16 10:09:00;;;;;;;;;;;;;;;4.24;64.30;100334.78;5115516;28;19919;-70
2022/02/16 10:11:26;;;;;;;;;;;;;;;4.20;63.71;100328.94;5095247;28;19916;-75
2022/02/16 10:13:53;;;;;;;;;;;;;;;4.26;64.42;100324.94;5077341;28;19920;-65
2022/02/16 10:16:30;;;;;;;;;;;;;;;4.19;63.88;100322.00;5111033;28;20370;-65
2022/02/16 10:18:57;;;;;;;;;;;;;;;3.94;64.59;100312.72;5114863;28;19922;-62
2022/02/16 10:21:22;;;;;;;;;;;;;;;3.83;64.30;100314.63;5078453;28;19920;-72
2022/02/16 10:23:48;;;;;;;;;;;;;;;3.68;64.57;100316.75;5099838;28;19935;-74
2022/02/16 10:26:13;;;;;;;;;;;;;;;3.69;65.58;100315.78;5098864;28;20374;-70
2022/02/16 10:28:41;;;;;;;;;;;;;;;3.67;65.24;100321.16;5091671;28;20019;-69
2022/02/16 10:31:07;;;;;;;;;;;;;;;3.65;65.47;100315.19;5112412;28;19915;-66
2022/02/16 10:33:35;;;;;;;;;;;;;;;3.60;64.74;100314.75;5102479;28;19924;-72
2022/02/16 10:36:12;;;;;;;;;;;;;;;3.62;64.76;100312.00;5059012;28;20371;-73
2022/02/16 10:38:55;;;;;;;;;;;;;;;3.64;64.43;100310.06;5093283;28;19916;-72
2022/02/16 10:41:24;;;;;;;;;;;;;;;3.68;64.94;100301.78;5095609;28;19923;-67
2022/02/16 10:43:53;;;;;;;;;;;;;;;3.64;64.33;100308.28;5108805;28;19919;-70
2022/02/16 10:46:23;;;;;;;;;;;;;;;3.56;63.98;100300.19;5102720;28;19920;-72
2022/02/16 10:49:06;;;;;;;;;;;;;;;3.53;64.56;100304.88;5105211;28;20366;-69
2022/02/16 10:51:33;;;;;;;;;;;;;;;3.38;64.31;100297.28;5098337;28;20468;-66
2022/02/16 10:54:09;;;;;;;;;;;;;;;3.26;64.91;100300.94;5107464;28;19926;-68
2022/02/16 10:56:35;;;;;;;;;;;;;;;3.15;65.56;100293.09;5055889;28;19920;-65
2022/02/16 10:59:00;;;;;;;;;;;;;;;3.07;64.90;100290.25;5073704;28;19978;-66
2022/02/16 11:01:29;;;;;;;;;;;;;;;3.05;65.16;100286.91;5077476;28;19920;-79
2022/02/16 11:03:55;;;;;;;;;;;;;;;3.01;65.29;100282.88;5059000;28;19966;-76
2022/02/16 11:06:20;;;;;;;;;;;;;;;3.00;65.88;100276.78;5080941;28;19920;-72
2022/02/16 11:08:46;;;;;;;;;;;;;;;2.89;65.35;100275.97;5075394;28;19962;-65
2022/02/16 11:11:12;;;;;;;;;;;;;;;2.85;66.10;100277.19;5092656;28;19916;-65
2022/02/16 11:13:37;;;;;;;;;;;;;;;2.82;66.34;100275.63;5091604;28;19983;-74
2022/02/16 11:16:04;;;;;;;;;;;;;;;2.80;66.55;100275.75;5095417;28;19922;-71
2022/02/16 11:18:42;;;;;;;;;;;;;;;2.79;66.74;100276.72;5098557;28;19923;-65
2022/02/16 11:21:15;;;;;;;;;;;;;;;2.86;66.72;100260.44;5097501;28;20405;-72
2022/02/16 11:23:45;;;;;;;;;;;;;;;2.98;66.60;100264.72;5093059;28;19916;-78
2022/02/16 11:26:27;;;;;;;;;;;;;;;3.12;66.59;100269.66;5093248;28;19916;-64
2022/02/16 11:28:52;;;;;;;;;;;;;;;3.27;67.51;100265.78;5093042;28;19920;-72
2022/02/16 11:31:25;;;;;;;;;;;;;;;3.35;66.82;100267.75;5074567;28;19923;-72
2022/02/16 11:34:09;;;;;;;;;;;;;;;3.36;67.16;100266.78;5074767;28;20383;-68
2022/02/16 11:36:45;;;;;;;;;;;;;;;3.41;67.08;100270.69;5092867;28;19959;-70
2022/02/16 11:39:10;;;;;;;;;;;;;;;3.38;67.01;100270.97;5106313;28;19920;-70
2022/02/16 11:41:35;;;;;;;;;;;;;;;3.29;67.12;100269.09;5111882;28;20002;-70
2022/02/16 11:44:08;;;;;;;;;;;;;;;3.35;67.11;100265.97;5112691;28;19955;-69
2022/02/16 11:46:40;;;;;;;;;;;;;;;3.40;66.73;100265.56;5110149;28;19919;-64
2022/02/16 11:49:06;;;;;;;;;;;;;;;3.34;66.42;100256.41;5094620;28;19916;-65
2022/02/16 11:51:36;;;;;;;;;;;;;;;3.30;66.79;100252.34;5092851;28;19916;-62
2022/02/16 11:54:20;;;;;;;;;;;;;;;3.28;67.45;100243.75;5105124;28;19945;-73
2022/02/16 11:56:45;;;;;;;;;;;;;;;3.32;67.16;100246.97;5112810;28;19916;-71
2022/02/16 11:59:11;;;;;;;;;;;;;;;3.35;66.95;100241.44;5078347;28;19923;-75
2022/02/16 12:01:59;;;;;;;;;;;;;;;3.36;66.74;100235.19;5091744;28;19924;-66
2022/02/16 12:04:31;;;;;;;;;;;;;;;3.41;66.52;100231.22;5072029;28;19916;-71
2022/02/16 12:07:16;;;;;;;;;;;;;;;3.48;66.02;100230.72;5071979;28;19916;-73
2022/02/16 12:09:41;;;;;;;;;;;;;;;3.57;65.88;100214.97;5071848;28;20015;-74
2022/02/16 12:12:11;;;;;;;;;;;;;;;3.58;65.36;100221.06;5054626;28;20008;-68
2022/02/16 12:14:36;;;;;;;;;;;;;;;3.53;65.93;100212.72;5071858;28;19920;-63
2022/02/16 12:17:02;;;;;;;;;;;;;;;3.45;66.28;100194.09;5071745;28;20387;-65
2022/02/16 12:19:28;;;;;;;;;;;;;;;3.50;66.53;100191.94;5071714;28;19917;-68
2022/02/16 12:21:54;;;;;;;;;;;;;;;3.46;66.55;100187.88;5071265;28;19928;-69
2022/02/16 12:24:22;;;;;;;;;;;;;;;3.42;66.91;100188.13;5071766;28;19916;-68
2022/02/16 12:26:50;;;;;;;;;;;;;;;3.45;67.13;100179.13;5053594;28;19966;-68
2022/02/16 12:29:17;;;;;;;;;;;;;;;3.55;66.99;100172.13;5036675;28;19916;-77
2022/02/16 12:31:44;;;;;;;;;;;;;;;3.59;66.24;100168.28;5053864;28;19916;-74
2022/02/16 12:34:14;;;;;;;;;;;;;;;3.59;65.78;100167.44;5071493;28;19916;-69
2022/02/16 12:36:43;;;;;;;;;;;;;;;3.59;66.36;100156.91;5070668;28;19959;-74
2022/02/16 12:39:09;;;;;;;;;;;;;;;3.38;66.30;100120.09;5071858;28;20010;-68
2022/02/16 12:41:35;;;;;;;;;;;;;;;3.51;65.91;100130.41;5072083;28;19916;-75
2022/02/16 12:44:11;;;;;;;;;;;;;;;3.48;66.28;100125.41;5050702;28;20017;-76